createdAt,value
2022-10-26T00:01:09.419Z,100.00
2022-10-26T00:02:11.190Z,100.00
2022-10-26T00:03:13.929Z,100.00
2022-10-26T00:04:15.661Z,100.00
2022-10-26T00:05:17.408Z,100.00
2022-10-26T00:06:21.956Z,100.00
2022-10-26T00:07:23.595Z,100.00
2022-10-26T00:08:25.296Z,100.00
2022-10-26T00:09:27.032Z,100.00
2022-10-26T00:10:30.912Z,100.00
2022-10-26T00:11:33.649Z,100.00
2022-10-26T00:12:35.341Z,100.00
2022-10-26T00:13:37.803Z,100.00
2022-10-26T00:14:40.003Z,100.00
2022-10-26T00:15:42.892Z,100.00
2022-10-26T00:16:44.799Z,100.00
2022-10-26T00:17:48.253Z,100.00
2022-10-26T00:18:51.042Z,100.00
2022-10-26T00:19:52.919Z,100.00
2022-10-26T00:20:54.875Z,100.00
2022-10-26T00:21:56.531Z,100.00
2022-10-26T00:22:59.805Z,100.00
2022-10-26T00:24:01.756Z,100.00
2022-10-26T00:25:04.831Z,100.00
2022-10-26T00:26:06.997Z,100.00
2022-10-26T00:27:08.604Z,100.00
2022-10-26T00:28:10.201Z,100.00
2022-10-26T00:29:12.881Z,100.00
2022-10-26T00:30:14.764Z,100.00
2022-10-26T00:31:16.773Z,100.00
2022-10-26T00:32:18.622Z,100.00
2022-10-26T00:33:20.699Z,100.00
2022-10-26T00:34:22.398Z,100.00
2022-10-26T00:35:34.731Z,100.00
2022-10-26T00:36:45.680Z,100.00
2022-10-26T00:37:47.988Z,100.00
2022-10-26T00:38:51.831Z,100.00
2022-10-26T00:39:53.503Z,100.00
2022-10-26T00:40:55.547Z,100.00
2022-10-26T00:41:57.299Z,100.00
2022-10-26T00:42:58.955Z,100.00
2022-10-26T00:44:01.222Z,100.00
2022-10-26T00:45:24.507Z,100.00
2022-10-26T00:46:38.250Z,100.00
2022-10-26T00:47:47.848Z,100.00
2022-10-26T00:48:58.670Z,100.00
2022-10-26T00:50:06.155Z,100.00
2022-10-26T00:51:24.394Z,100.00
2022-10-26T00:52:29.605Z,100.00
2022-10-26T00:53:33.244Z,100.00
2022-10-26T00:54:35.476Z,100.00
2022-10-26T00:55:45.559Z,100.00
2022-10-26T00:56:52.009Z,100.00
2022-10-26T00:57:55.042Z,100.00
2022-10-26T00:59:00.792Z,100.00
2022-10-26T01:00:02.624Z,100.00
2022-10-26T01:01:04.745Z,100.00
2022-10-26T01:02:08.415Z,100.00
2022-10-26T01:03:12.048Z,100.00
2022-10-26T01:04:14.852Z,100.00
2022-10-26T01:05:18.117Z,100.00
2022-10-26T01:06:21.098Z,100.00
2022-10-26T01:07:23.481Z,100.00
2022-10-26T01:08:28.222Z,100.00
2022-10-26T01:09:30.333Z,100.00
2022-10-26T01:10:32.481Z,100.00
2022-10-26T01:11:34.237Z,100.00
2022-10-26T01:12:36.513Z,100.00
2022-10-26T01:13:38.236Z,100.00
2022-10-26T01:14:40.260Z,100.00
2022-10-26T01:15:51.503Z,100.00
2022-10-26T01:17:11.268Z,100.00
2022-10-26T01:18:27.428Z,100.00
2022-10-26T01:19:41.262Z,100.00
2022-10-26T01:21:20.177Z,100.00
2022-10-26T01:22:42.227Z,100.00
2022-10-26T01:24:05.016Z,100.00
2022-10-26T01:25:28.233Z,100.00
2022-10-26T01:26:48.765Z,100.00
2022-10-26T01:27:52.095Z,100.00
2022-10-26T01:29:21.537Z,100.00
2022-10-26T01:30:37.506Z,100.00
2022-10-26T01:31:49.590Z,100.00
2022-10-26T01:33:09.320Z,100.00
2022-10-26T01:34:30.433Z,100.00
2022-10-26T01:35:59.918Z,100.00
2022-10-26T01:37:14.146Z,100.00
2022-10-26T01:38:34.597Z,100.00
2022-10-26T01:40:02.286Z,100.00
2022-10-26T01:41:25.648Z,100.00
2022-10-26T01:42:31.164Z,100.00
2022-10-26T01:43:36.783Z,100.00
2022-10-26T01:44:48.221Z,100.00
2022-10-26T01:45:51.733Z,100.00
2022-10-26T01:46:55.773Z,100.00
2022-10-26T01:48:00.229Z,100.00
2022-10-26T01:49:09.267Z,100.00
2022-10-26T01:50:11.704Z,100.00
2022-10-26T01:51:15.366Z,100.00
2022-10-26T01:52:19.148Z,100.00
2022-10-26T01:53:20.934Z,100.00
2022-10-26T01:54:22.592Z,100.00
2022-10-26T01:55:39.533Z,100.00
2022-10-26T01:56:45.231Z,100.00
2022-10-26T01:57:47.343Z,100.00
2022-10-26T01:59:12.092Z,100.00
2022-10-26T02:00:14.356Z,100.00
2022-10-26T02:01:25.886Z,100.00
2022-10-26T02:02:39.667Z,100.00
2022-10-26T02:04:09.187Z,100.00
2022-10-26T02:05:50.138Z,100.00
2022-10-26T02:07:01.539Z,100.00
2022-10-26T02:08:20.544Z,100.00
2022-10-26T02:09:44.152Z,100.00
2022-10-26T02:11:11.168Z,100.00
2022-10-26T02:12:42.681Z,100.00
2022-10-26T02:13:48.064Z,100.00
2022-10-26T02:14:58.296Z,100.00
2022-10-26T02:16:21.865Z,100.00
2022-10-26T02:17:51.958Z,100.00
2022-10-26T02:19:18.285Z,100.00
2022-10-26T02:20:34.377Z,100.00
2022-10-26T02:21:40.568Z,100.00
2022-10-26T02:22:47.372Z,100.00
2022-10-26T02:23:54.848Z,100.00
2022-10-26T02:24:59.200Z,100.00
2022-10-26T02:26:03.467Z,100.00
2022-10-26T02:27:11.457Z,100.00
2022-10-26T02:28:19.915Z,100.00
2022-10-26T02:29:23.577Z,100.00
2022-10-26T02:30:25.625Z,100.00
2022-10-26T02:31:28.314Z,100.00
2022-10-26T02:32:35.149Z,100.00
2022-10-26T02:33:43.922Z,100.00
2022-10-26T02:34:49.909Z,100.00
2022-10-26T02:35:54.435Z,100.00
2022-10-26T02:37:00.741Z,100.00
2022-10-26T02:38:08.815Z,100.00
2022-10-26T02:39:12.934Z,100.00
2022-10-26T02:40:19.382Z,100.00
2022-10-26T02:41:23.881Z,100.00
2022-10-26T02:42:27.897Z,100.00
2022-10-26T02:43:33.245Z,100.00
2022-10-26T02:45:00.693Z,100.00
2022-10-26T02:46:15.693Z,100.00
2022-10-26T02:47:19.507Z,100.00
2022-10-26T02:48:22.465Z,100.00
2022-10-26T02:49:25.158Z,100.00
2022-10-26T02:50:33.550Z,100.00
2022-10-26T02:51:44.159Z,100.00
2022-10-26T02:53:10.430Z,100.00
2022-10-26T02:54:43.007Z,100.00
2022-10-26T02:55:50.664Z,100.00
2022-10-26T02:56:56.658Z,100.00
2022-10-26T02:58:03.084Z,100.00
2022-10-26T02:59:07.440Z,100.00
2022-10-26T03:00:12.215Z,100.00
2022-10-26T03:01:14.737Z,100.00
2022-10-26T03:02:19.331Z,100.00
2022-10-26T03:03:21.871Z,100.00
2022-10-26T03:04:34.376Z,100.00
2022-10-26T03:05:36.948Z,100.00
2022-10-26T03:06:38.654Z,100.00
2022-10-26T03:07:40.515Z,100.00
2022-10-26T03:08:42.494Z,100.00
2022-10-26T03:09:44.139Z,100.00
2022-10-26T03:10:46.548Z,100.00
2022-10-26T03:11:48.167Z,100.00
2022-10-26T03:12:50.415Z,100.00
2022-10-26T03:13:52.361Z,100.00
2022-10-26T03:14:54.021Z,100.00
2022-10-26T03:15:57.666Z,100.00
2022-10-26T03:16:59.437Z,100.00
2022-10-26T03:18:01.464Z,100.00
2022-10-26T03:19:03.096Z,100.00
2022-10-26T03:20:05.739Z,100.00
2022-10-26T03:21:07.337Z,100.00
2022-10-26T03:22:09.105Z,100.00
2022-10-26T03:23:11.062Z,100.00
2022-10-26T03:24:12.684Z,100.00
2022-10-26T03:25:15.647Z,100.00
2022-10-26T03:26:17.548Z,100.00
2022-10-26T03:27:19.587Z,100.00
2022-10-26T03:28:21.223Z,100.00
2022-10-26T03:29:23.451Z,100.00
2022-10-26T03:30:25.462Z,100.00
2022-10-26T03:31:27.168Z,100.00
2022-10-26T03:32:29.050Z,100.00
2022-10-26T03:33:30.776Z,100.00
2022-10-26T03:34:32.715Z,100.00
2022-10-26T03:35:34.577Z,100.00
2022-10-26T03:36:36.193Z,100.00
2022-10-26T03:37:37.843Z,100.00
2022-10-26T03:38:39.999Z,100.00
2022-10-26T03:39:42.163Z,100.00
2022-10-26T03:40:44.027Z,100.00
2022-10-26T03:41:45.879Z,100.00
2022-10-26T03:42:47.879Z,100.00
2022-10-26T03:43:49.810Z,100.00
2022-10-26T03:44:51.925Z,100.00
2022-10-26T03:45:54.039Z,100.00
2022-10-26T03:46:55.724Z,100.00
2022-10-26T03:47:57.393Z,100.00
2022-10-26T03:48:59.556Z,100.00
2022-10-26T03:50:01.232Z,100.00
2022-10-26T03:51:03.110Z,100.00
2022-10-26T03:52:04.807Z,100.00
2022-10-26T03:53:06.734Z,100.00
2022-10-26T03:54:08.714Z,100.00
2022-10-26T03:55:10.928Z,100.00
2022-10-26T03:56:12.609Z,100.00
2022-10-26T03:57:14.253Z,100.00
2022-10-26T03:58:15.972Z,100.00
2022-10-26T03:59:17.841Z,100.00
2022-10-26T04:00:19.698Z,100.00
2022-10-26T04:01:21.553Z,100.00
2022-10-26T04:02:24.887Z,100.00
2022-10-26T04:03:27.070Z,100.00
2022-10-26T04:04:28.835Z,100.00
2022-10-26T04:05:30.701Z,100.00
2022-10-26T04:06:32.662Z,100.00
2022-10-26T04:07:34.459Z,100.00
2022-10-26T04:08:36.312Z,100.00
2022-10-26T04:09:37.904Z,100.00
2022-10-26T04:10:39.544Z,100.00
2022-10-26T04:11:41.453Z,100.00
2022-10-26T04:12:43.118Z,100.00
2022-10-26T04:13:44.799Z,100.00
2022-10-26T04:14:46.559Z,100.00
2022-10-26T04:15:48.281Z,100.00
2022-10-26T04:16:49.970Z,100.00
2022-10-26T04:17:59.544Z,100.00
2022-10-26T04:19:01.536Z,100.00
2022-10-26T04:20:03.518Z,100.00
2022-10-26T04:21:05.605Z,100.00
2022-10-26T04:22:07.260Z,100.00
2022-10-26T04:23:14.431Z,100.00
2022-10-26T04:24:16.261Z,100.00
2022-10-26T04:25:18.090Z,100.00
2022-10-26T04:26:19.766Z,100.00
2022-10-26T04:27:22.120Z,100.00
2022-10-26T04:28:24.417Z,100.00
2022-10-26T04:29:26.109Z,100.00
2022-10-26T04:30:28.250Z,100.00
2022-10-26T04:31:29.880Z,100.00
2022-10-26T04:32:31.747Z,100.00
2022-10-26T04:33:33.420Z,100.00
2022-10-26T04:34:35.070Z,100.00
2022-10-26T04:35:36.826Z,100.00
2022-10-26T04:36:38.586Z,100.00
2022-10-26T04:37:40.544Z,100.00
2022-10-26T04:38:42.447Z,100.00
2022-10-26T04:39:44.122Z,100.00
2022-10-26T04:40:45.944Z,100.00
2022-10-26T04:41:47.595Z,100.00
2022-10-26T04:42:49.540Z,100.00
2022-10-26T04:43:51.482Z,100.00
2022-10-26T04:44:53.084Z,100.00
2022-10-26T04:45:56.780Z,100.00
2022-10-26T04:46:58.609Z,100.00
2022-10-26T04:48:05.645Z,100.00
2022-10-26T04:49:07.322Z,100.00
2022-10-26T04:50:10.891Z,100.00
2022-10-26T04:51:12.538Z,100.00
2022-10-26T04:52:14.231Z,100.00
2022-10-26T04:53:16.358Z,100.00
2022-10-26T04:54:18.032Z,100.00
2022-10-26T04:55:20.160Z,100.00
2022-10-26T04:56:21.827Z,100.00
2022-10-26T04:57:23.738Z,100.00
2022-10-26T04:58:25.844Z,100.00
2022-10-26T04:59:27.626Z,100.00
2022-10-26T05:00:31.061Z,100.00
2022-10-26T05:01:32.953Z,100.00
2022-10-26T05:02:34.721Z,100.00
2022-10-26T05:03:36.401Z,100.00
2022-10-26T05:04:38.069Z,100.00
2022-10-26T05:05:39.840Z,100.00
2022-10-26T05:06:41.532Z,100.00
2022-10-26T05:07:43.291Z,100.00
2022-10-26T05:08:45.128Z,100.00
2022-10-26T05:09:47.409Z,100.00
2022-10-26T05:10:50.486Z,100.00
2022-10-26T05:11:52.166Z,100.00
2022-10-26T05:12:54.980Z,100.00
2022-10-26T05:13:56.717Z,100.00
2022-10-26T05:14:59.438Z,100.00
2022-10-26T05:16:01.243Z,100.00
2022-10-26T05:17:03.234Z,100.00
2022-10-26T05:18:06.024Z,100.00
2022-10-26T05:19:08.406Z,100.00
2022-10-26T05:20:13.453Z,100.00
2022-10-26T05:21:19.426Z,100.00
2022-10-26T05:22:25.802Z,100.00
2022-10-26T05:23:28.072Z,100.00
2022-10-26T05:24:30.207Z,100.00
2022-10-26T05:25:36.941Z,100.00
2022-10-26T05:26:38.698Z,100.00
2022-10-26T05:27:40.882Z,100.00
2022-10-26T05:28:42.653Z,100.00
2022-10-26T05:29:44.403Z,100.00
2022-10-26T05:30:46.936Z,100.00
2022-10-26T05:31:49.078Z,100.00
2022-10-26T05:32:58.547Z,100.00
2022-10-26T05:34:00.177Z,100.00
2022-10-26T05:35:02.114Z,100.00
2022-10-26T05:36:04.098Z,100.00
2022-10-26T05:37:05.767Z,100.00
2022-10-26T05:38:15.942Z,100.00
2022-10-26T05:39:17.783Z,100.00
2022-10-26T05:40:19.816Z,100.00
2022-10-26T05:41:21.458Z,100.00
2022-10-26T05:42:23.243Z,100.00
2022-10-26T05:43:25.418Z,100.00
2022-10-26T05:44:27.736Z,100.00
2022-10-26T05:45:29.950Z,100.00
2022-10-26T05:46:31.561Z,100.00
2022-10-26T05:47:33.183Z,100.00
2022-10-26T05:48:34.889Z,100.00
2022-10-26T05:49:36.630Z,100.00
2022-10-26T05:50:38.619Z,100.00
2022-10-26T05:51:41.206Z,100.00
2022-10-26T05:52:47.380Z,100.00
2022-10-26T05:53:54.306Z,100.00
2022-10-26T05:54:55.948Z,100.00
2022-10-26T05:55:58.300Z,100.00
2022-10-26T05:57:00.644Z,100.00
2022-10-26T05:58:02.763Z,100.00
2022-10-26T05:59:10.282Z,100.00
2022-10-26T06:00:20.089Z,100.00
2022-10-26T06:01:37.188Z,100.00
2022-10-26T06:03:23.967Z,100.00
2022-10-26T06:04:39.044Z,100.00
2022-10-26T06:05:58.890Z,100.00
2022-10-26T06:07:01.866Z,100.00
2022-10-26T06:08:08.072Z,100.00
2022-10-26T06:09:11.927Z,100.00
2022-10-26T06:10:14.189Z,100.00
2022-10-26T06:11:16.127Z,100.00
2022-10-26T06:12:19.684Z,100.00
2022-10-26T06:13:22.790Z,100.00
2022-10-26T06:14:24.838Z,100.00
2022-10-26T06:15:26.768Z,100.00
2022-10-26T06:16:31.502Z,100.00
2022-10-26T06:17:55.512Z,100.00
2022-10-26T06:19:14.138Z,100.00
2022-10-26T06:20:22.269Z,100.00
2022-10-26T06:21:43.201Z,100.00
2022-10-26T06:23:09.616Z,100.00
2022-10-26T06:24:22.468Z,100.00
2022-10-26T06:25:33.259Z,100.00
2022-10-26T06:27:18.694Z,100.00
2022-10-26T06:29:44.721Z,100.00
2022-10-26T06:30:46.604Z,100.00
2022-10-26T06:31:48.468Z,100.00
2022-10-26T06:33:01.148Z,100.00
2022-10-26T06:34:21.474Z,100.00
2022-10-26T06:35:37.771Z,100.00
2022-10-26T06:36:41.523Z,100.00
2022-10-26T06:37:46.154Z,100.00
2022-10-26T06:39:00.603Z,100.00
2022-10-26T06:40:03.101Z,100.00
2022-10-26T06:41:05.994Z,100.00
2022-10-26T06:42:10.766Z,100.00
2022-10-26T06:43:20.507Z,100.00
2022-10-26T06:44:23.859Z,100.00
2022-10-26T06:45:25.819Z,100.00
2022-10-26T06:46:30.888Z,100.00
2022-10-26T06:47:40.779Z,100.00
2022-10-26T06:49:24.620Z,100.00
2022-10-26T06:50:43.346Z,100.00
2022-10-26T06:51:55.936Z,100.00
2022-10-26T06:53:06.795Z,100.00
2022-10-26T06:54:54.793Z,100.00
2022-10-26T06:56:00.300Z,100.00
2022-10-26T06:57:02.184Z,100.00
2022-10-26T06:58:04.581Z,100.00
2022-10-26T06:59:18.636Z,100.00
2022-10-26T07:00:22.645Z,100.00
2022-10-26T07:01:24.588Z,100.00
2022-10-26T07:02:26.706Z,100.00
2022-10-26T07:03:28.570Z,100.00
2022-10-26T07:04:30.241Z,100.00
2022-10-26T07:05:31.970Z,100.00
2022-10-26T07:06:35.577Z,100.00
2022-10-26T07:07:43.186Z,100.00
2022-10-26T07:08:45.047Z,100.00
2022-10-26T07:09:46.927Z,100.00
2022-10-26T07:10:48.632Z,100.00
2022-10-26T07:11:50.401Z,100.00
2022-10-26T07:12:52.192Z,100.00
2022-10-26T07:13:53.984Z,100.00
2022-10-26T07:14:55.747Z,100.00
2022-10-26T07:15:57.525Z,100.00
2022-10-26T07:16:59.554Z,100.00
2022-10-26T07:18:01.456Z,100.00
2022-10-26T07:19:03.112Z,100.00
2022-10-26T07:20:05.471Z,100.00
2022-10-26T07:21:07.184Z,100.00
2022-10-26T07:22:08.906Z,100.00
2022-10-26T07:23:15.886Z,100.00
2022-10-26T07:24:17.580Z,100.00
2022-10-26T07:25:20.505Z,100.00
2022-10-26T07:26:22.313Z,100.00
2022-10-26T07:27:24.096Z,100.00
2022-10-26T07:28:25.803Z,100.00
2022-10-26T07:29:27.606Z,100.00
2022-10-26T07:30:30.834Z,100.00
2022-10-26T07:31:32.986Z,100.00
2022-10-26T07:32:34.667Z,100.00
2022-10-26T07:33:39.454Z,100.00
2022-10-26T07:34:43.281Z,100.00
2022-10-26T07:35:44.987Z,100.00
2022-10-26T07:36:46.579Z,100.00
2022-10-26T07:37:48.310Z,100.00
2022-10-26T07:38:54.190Z,100.00
2022-10-26T07:39:55.928Z,100.00
2022-10-26T07:40:57.830Z,100.00
2022-10-26T07:41:59.461Z,100.00
2022-10-26T07:43:01.159Z,100.00
2022-10-26T07:44:03.054Z,100.00
2022-10-26T07:45:05.276Z,100.00
2022-10-26T07:46:07.291Z,100.00
2022-10-26T07:47:09.045Z,100.00
2022-10-26T07:48:10.751Z,100.00
2022-10-26T07:49:14.323Z,100.00
2022-10-26T07:50:18.239Z,100.00
2022-10-26T07:51:19.957Z,100.00
2022-10-26T07:52:21.678Z,100.00
2022-10-26T07:53:27.690Z,100.00
2022-10-26T07:54:29.672Z,100.00
2022-10-26T07:55:31.394Z,100.00
2022-10-26T07:56:32.958Z,100.00
2022-10-26T07:57:35.105Z,100.00
2022-10-26T07:58:37.198Z,100.00
2022-10-26T07:59:38.913Z,100.00
2022-10-26T08:00:40.696Z,100.00
2022-10-26T08:01:43.160Z,100.00
2022-10-26T08:02:45.326Z,100.00
2022-10-26T08:03:47.013Z,100.00
2022-10-26T08:04:48.660Z,100.00
2022-10-26T08:05:56.000Z,100.00
2022-10-26T08:06:57.892Z,100.00
2022-10-26T08:07:59.549Z,100.00
2022-10-26T08:09:01.228Z,100.00
2022-10-26T08:10:04.663Z,100.00
2022-10-26T08:11:06.697Z,100.00
2022-10-26T08:12:08.389Z,100.00
2022-10-26T08:13:10.659Z,100.00
2022-10-26T08:14:12.262Z,100.00
2022-10-26T08:15:14.004Z,100.00
2022-10-26T08:16:17.279Z,100.00
2022-10-26T08:17:20.729Z,100.00
2022-10-26T08:18:22.374Z,100.00
2022-10-26T08:19:24.128Z,100.00
2022-10-26T08:20:25.914Z,100.00
2022-10-26T08:21:40.249Z,100.00
2022-10-26T08:22:42.319Z,100.00
2022-10-26T08:23:44.430Z,100.00
2022-10-26T08:24:47.067Z,100.00
2022-10-26T08:25:48.894Z,100.00
2022-10-26T08:26:50.729Z,100.00
2022-10-26T08:27:53.044Z,100.00
2022-10-26T08:28:55.276Z,100.00
2022-10-26T08:29:57.085Z,100.00
2022-10-26T08:30:58.696Z,100.00
2022-10-26T08:32:00.491Z,95.13
2022-10-26T08:33:07.978Z,93.21
2022-10-26T08:34:09.830Z,92.06
2022-10-26T08:35:11.811Z,91.16
2022-10-26T08:36:14.644Z,87.83
2022-10-26T08:37:16.505Z,86.74
2022-10-26T08:38:18.140Z,80.79
2022-10-26T08:39:20.625Z,76.22
2022-10-26T08:40:26.445Z,74.01
2022-10-26T08:41:38.077Z,69.56
2022-10-26T08:42:46.022Z,66.46
2022-10-26T08:43:56.990Z,63.28
2022-10-26T08:45:08.015Z,61.16
2022-10-26T08:46:21.168Z,56.54
2022-10-26T08:47:26.840Z,51.95
2022-10-26T08:48:37.226Z,51.18
2022-10-26T08:49:42.820Z,49.93
2022-10-26T08:50:56.880Z,47.27
2022-10-26T08:52:01.982Z,49.39
2022-10-26T08:53:29.395Z,50.71
2022-10-26T08:54:40.889Z,49.61
2022-10-26T08:55:47.998Z,51.25
2022-10-26T08:56:56.074Z,53.74
2022-10-26T08:58:01.551Z,55.44
2022-10-26T08:59:13.683Z,56.66
2022-10-26T09:00:20.327Z,57.02
2022-10-26T09:01:22.324Z,59.38
2022-10-26T09:02:24.931Z,60.97
2022-10-26T09:03:26.524Z,60.18
2022-10-26T09:04:31.333Z,63.16
2022-10-26T09:05:52.268Z,63.69
2022-10-26T09:07:27.692Z,65.22
2022-10-26T09:08:37.138Z,65.34
2022-10-26T09:10:04.742Z,65.80
2022-10-26T09:11:41.893Z,61.86
2022-10-26T09:13:01.827Z,58.31
2022-10-26T09:14:19.574Z,59.32
2022-10-26T09:15:48.933Z,59.64
2022-10-26T09:17:03.704Z,59.34
2022-10-26T09:18:05.432Z,59.72
2022-10-26T09:19:22.470Z,53.96
2022-10-26T09:20:30.115Z,57.10
2022-10-26T09:21:47.388Z,54.49
2022-10-26T09:22:54.781Z,54.51
2022-10-26T09:23:59.163Z,52.42
2022-10-26T09:25:16.642Z,53.50
2022-10-26T09:26:31.522Z,53.71
2022-10-26T09:27:45.684Z,52.89
2022-10-26T09:28:48.565Z,55.09
2022-10-26T09:29:52.532Z,54.78
2022-10-26T09:30:57.969Z,55.19
2022-10-26T09:32:02.203Z,58.74
2022-10-26T09:33:17.047Z,59.08
2022-10-26T09:34:43.011Z,61.91
2022-10-26T09:35:50.738Z,62.95
2022-10-26T09:36:59.123Z,66.68
2022-10-26T09:38:09.185Z,67.40
2022-10-26T09:39:17.043Z,64.82
2022-10-26T09:40:42.486Z,67.17
2022-10-26T09:41:50.007Z,70.28
2022-10-26T09:43:01.033Z,70.21
2022-10-26T09:44:30.628Z,72.55
2022-10-26T09:45:39.964Z,76.59
2022-10-26T09:46:53.549Z,75.80
2022-10-26T09:48:02.725Z,75.21
2022-10-26T09:49:10.402Z,75.74
2022-10-26T09:50:22.511Z,75.64
2022-10-26T09:51:27.155Z,79.22
2022-10-26T09:52:28.962Z,74.75
2022-10-26T09:53:31.770Z,73.34
2022-10-26T09:54:33.739Z,73.15
2022-10-26T09:55:43.294Z,72.26
2022-10-26T09:56:49.835Z,71.71
2022-10-26T09:57:55.939Z,71.98
2022-10-26T09:59:03.299Z,71.95
2022-10-26T10:00:05.476Z,64.34
2022-10-26T10:01:07.756Z,63.42
2022-10-26T10:02:36.580Z,64.51
2022-10-26T10:03:38.304Z,64.23
2022-10-26T10:04:47.151Z,67.32
2022-10-26T10:05:51.792Z,66.04
2022-10-26T10:07:14.243Z,65.96
2022-10-26T10:08:24.205Z,65.48
2022-10-26T10:09:26.106Z,66.98
2022-10-26T10:10:27.731Z,67.29
2022-10-26T10:11:43.165Z,67.39
2022-10-26T10:12:46.787Z,67.53
2022-10-26T10:13:48.737Z,70.15
2022-10-26T10:14:58.652Z,67.43
2022-10-26T10:16:23.066Z,65.72
2022-10-26T10:17:25.752Z,66.37
2022-10-26T10:18:27.494Z,65.43
2022-10-26T10:19:35.352Z,65.68
2022-10-26T10:20:37.365Z,64.95
2022-10-26T10:21:49.819Z,63.05
2022-10-26T10:22:59.435Z,67.09
2022-10-26T10:24:01.457Z,62.91
2022-10-26T10:25:04.819Z,63.46
2022-10-26T10:26:13.631Z,62.58
2022-10-26T10:27:18.596Z,63.36
2022-10-26T10:28:26.205Z,63.04
2022-10-26T10:29:40.677Z,62.85
2022-10-26T10:30:55.213Z,63.57
2022-10-26T10:32:02.013Z,64.35
2022-10-26T10:33:13.110Z,67.02
2022-10-26T10:34:18.037Z,60.13
2022-10-26T10:35:30.384Z,59.67
2022-10-26T10:36:32.451Z,57.45
2022-10-26T10:37:44.400Z,58.62
2022-10-26T10:38:49.282Z,58.87
2022-10-26T10:39:51.598Z,57.47
2022-10-26T10:41:03.593Z,59.42
2022-10-26T10:42:14.034Z,60.65
2022-10-26T10:43:16.451Z,61.20
2022-10-26T10:44:27.855Z,60.11
2022-10-26T10:45:31.138Z,61.16
2022-10-26T10:46:33.328Z,61.94
2022-10-26T10:47:36.645Z,62.01
2022-10-26T10:48:46.443Z,63.18
2022-10-26T10:50:14.514Z,63.84
2022-10-26T10:51:22.559Z,64.30
2022-10-26T10:52:28.393Z,64.79
2022-10-26T10:53:37.004Z,62.91
2022-10-26T10:54:39.966Z,63.82
2022-10-26T10:57:10.359Z,63.02
2022-10-26T10:58:26.386Z,62.30
2022-10-26T10:59:43.725Z,62.42
2022-10-26T11:00:48.423Z,60.29
2022-10-26T11:02:02.136Z,61.22
2022-10-26T11:03:14.119Z,56.26
2022-10-26T11:04:34.902Z,53.63
2022-10-26T11:05:58.133Z,49.53
2022-10-26T11:07:03.525Z,46.07
2022-10-26T11:08:09.167Z,42.57
2022-10-26T11:09:15.302Z,40.71
2022-10-26T11:10:19.778Z,37.88
2022-10-26T11:11:45.453Z,36.31
2022-10-26T11:12:58.594Z,36.10
2022-10-26T11:14:17.262Z,36.52
2022-10-26T11:15:26.441Z,37.56
2022-10-26T11:16:39.355Z,38.45
2022-10-26T11:18:05.187Z,41.02
2022-10-26T11:19:31.446Z,40.46
2022-10-26T11:20:42.317Z,42.89
2022-10-26T11:21:48.386Z,46.14
2022-10-26T11:22:53.438Z,46.20
2022-10-26T11:24:34.404Z,46.47
2022-10-26T11:25:47.191Z,45.65
2022-10-26T11:27:13.033Z,46.22
2022-10-26T11:28:33.027Z,45.50
2022-10-26T11:29:58.278Z,45.96
2022-10-26T11:31:07.966Z,44.46
2022-10-26T11:32:54.463Z,43.99
2022-10-26T11:34:31.706Z,40.52
2022-10-26T11:35:41.418Z,38.91
2022-10-26T11:36:46.824Z,37.24
2022-10-26T11:38:12.805Z,36.87
2022-10-26T11:39:24.051Z,38.72
2022-10-26T11:40:53.933Z,39.22
2022-10-26T11:42:09.862Z,39.17
2022-10-26T11:43:21.895Z,38.64
2022-10-26T11:44:43.251Z,36.26
2022-10-26T11:46:02.797Z,38.88
2022-10-26T11:47:13.541Z,39.51
2022-10-26T11:48:34.111Z,39.56
2022-10-26T11:50:03.559Z,40.60
2022-10-26T11:51:10.388Z,41.49
2022-10-26T11:52:25.346Z,40.64
2022-10-26T11:53:36.947Z,39.67
2022-10-26T11:54:47.684Z,40.78
2022-10-26T11:55:53.503Z,40.15
2022-10-26T11:56:57.054Z,40.13
2022-10-26T11:57:59.574Z,40.28
2022-10-26T12:00:17.306Z,40.24
2022-10-26T12:01:19.585Z,40.64
2022-10-26T12:02:25.779Z,39.40
2022-10-26T12:03:32.802Z,40.74
2022-10-26T12:04:39.006Z,38.73
2022-10-26T12:05:40.929Z,39.29
2022-10-26T12:06:43.981Z,37.46
2022-10-26T12:07:55.870Z,35.48
2022-10-26T12:09:09.125Z,34.46
2022-10-26T12:10:35.279Z,35.04
2022-10-26T12:12:03.428Z,34.15
2022-10-26T12:13:35.329Z,37.18
2022-10-26T12:14:44.417Z,38.09
2022-10-26T12:16:03.603Z,39.79
2022-10-26T12:17:08.582Z,39.19
2022-10-26T12:18:50.105Z,39.15
2022-10-26T12:19:58.392Z,37.93
2022-10-26T12:21:07.224Z,37.69
2022-10-26T12:22:14.819Z,38.15
2022-10-26T12:23:23.409Z,38.65
2022-10-26T12:24:36.907Z,37.97
2022-10-26T12:25:39.283Z,37.13
2022-10-26T12:26:59.245Z,36.99
2022-10-26T12:28:00.964Z,38.06
2022-10-26T12:29:02.692Z,37.48
2022-10-26T12:30:19.919Z,36.49
2022-10-26T12:31:47.806Z,36.20
2022-10-26T12:32:53.855Z,34.35
2022-10-26T12:33:55.966Z,33.55
2022-10-26T12:35:00.378Z,32.20
2022-10-26T12:36:02.110Z,33.70
2022-10-26T12:37:04.365Z,32.77
2022-10-26T12:38:24.373Z,32.97
2022-10-26T12:39:35.748Z,34.01
2022-10-26T12:40:42.681Z,34.02
2022-10-26T12:42:21.433Z,34.85
2022-10-26T12:43:23.287Z,35.16
2022-10-26T12:44:31.987Z,35.00
2022-10-26T12:45:33.707Z,35.06
2022-10-26T12:46:39.208Z,36.91
2022-10-26T12:48:07.005Z,38.19
2022-10-26T12:49:59.305Z,41.96
2022-10-26T12:51:21.825Z,40.52
2022-10-26T12:52:29.399Z,39.72
2022-10-26T12:53:41.054Z,39.61
2022-10-26T12:54:57.181Z,38.57
2022-10-26T12:56:11.955Z,37.66
2022-10-26T12:57:16.220Z,38.84
2022-10-26T12:59:04.306Z,37.71
2022-10-26T13:00:14.888Z,39.00
2022-10-26T13:01:26.811Z,37.85
2022-10-26T13:02:34.719Z,38.64
2022-10-26T13:04:26.728Z,38.64
2022-10-26T13:06:02.019Z,38.79
2022-10-26T13:07:17.343Z,39.20
2022-10-26T13:08:19.587Z,38.25
2022-10-26T13:09:25.050Z,37.49
2022-10-26T13:10:27.144Z,37.05
2022-10-26T13:11:31.413Z,35.98
2022-10-26T13:12:58.647Z,36.22
2022-10-26T13:14:03.661Z,37.65
2022-10-26T13:15:18.768Z,39.12
2022-10-26T13:16:20.678Z,38.41
2022-10-26T13:17:31.788Z,37.83
2022-10-26T13:18:42.881Z,36.12
2022-10-26T13:19:48.995Z,36.98
2022-10-26T13:21:00.262Z,37.20
2022-10-26T13:22:02.170Z,37.74
2022-10-26T13:23:16.799Z,38.17
2022-10-26T13:24:23.464Z,38.95
2022-10-26T13:25:28.226Z,38.58
2022-10-26T13:26:32.612Z,37.52
2022-10-26T13:27:34.615Z,37.86
2022-10-26T13:28:39.427Z,39.85
2022-10-26T13:30:10.023Z,42.28
2022-10-26T13:31:41.640Z,41.22
2022-10-26T13:32:50.468Z,40.20
2022-10-26T13:33:56.233Z,39.60
2022-10-26T13:35:01.689Z,38.14
2022-10-26T13:36:15.059Z,39.16
2022-10-26T13:37:30.783Z,36.99
2022-10-26T13:38:36.687Z,37.26
2022-10-26T13:39:47.233Z,36.87
2022-10-26T13:40:50.740Z,37.52
2022-10-26T13:41:54.937Z,38.13
2022-10-26T13:42:57.937Z,38.38
2022-10-26T13:44:05.484Z,38.63
2022-10-26T13:45:12.816Z,37.84
2022-10-26T13:46:26.575Z,37.96
2022-10-26T13:47:52.920Z,38.77
2022-10-26T13:49:00.459Z,38.49
2022-10-26T13:50:07.873Z,37.21
2022-10-26T13:51:42.859Z,36.77
2022-10-26T13:52:51.836Z,34.94
2022-10-26T13:53:59.965Z,34.85
2022-10-26T13:55:13.488Z,34.09
2022-10-26T13:56:26.385Z,33.91
2022-10-26T13:57:43.704Z,35.13
2022-10-26T13:59:13.579Z,37.63
2022-10-26T14:00:21.412Z,38.45
2022-10-26T14:01:25.461Z,39.29
2022-10-26T14:02:32.037Z,38.33
2022-10-26T14:03:33.822Z,39.86
2022-10-26T14:04:35.611Z,38.27
2022-10-26T14:05:42.548Z,39.11
2022-10-26T14:06:51.185Z,39.63
2022-10-26T14:07:58.290Z,38.70
2022-10-26T14:09:04.065Z,38.91
2022-10-26T14:10:06.470Z,38.24
2022-10-26T14:11:13.068Z,37.98
2022-10-26T14:12:14.806Z,37.82
2022-10-26T14:13:19.734Z,37.47
2022-10-26T14:14:26.261Z,36.28
2022-10-26T14:15:33.310Z,38.16
2022-10-26T14:16:35.709Z,37.87
2022-10-26T14:17:37.716Z,38.97
2022-10-26T14:18:40.841Z,37.40
2022-10-26T14:19:44.941Z,38.55
2022-10-26T14:21:00.584Z,38.50